sensor_id;sensor_type;location;lat;lon;timestamp;pressure;altitude;pressure_sealevel;temperature;humidity
47374;BME280;33123;50.118;10.272;2023-02-20T00:01:33;98563.84;;;10.05;69.52
47374;BME280;33123;50.118;10.272;2023-02-20T00:04:00;98558.38;;;9.89;69.63
47374;BME280;33123;50.118;10.272;2023-02-20T00:06:27;98561.34;;;9.92;69.33
47374;BME280;33123;50.118;10.272;2023-02-20T00:08:53;98568.97;;;10.00;69.27
47374;BME280;33123;50.118;10.272;2023-02-20T00:11:20;98566.19;;;9.95;69.11
47374;BME280;33123;50.118;10.272;2023-02-20T00:13:48;98565.28;;;10.01;68.57
47374;BME280;33123;50.118;10.272;2023-02-20T00:16:16;98559.00;;;10.02;68.42
47374;BME280;33123;50.118;10.272;2023-02-20T00:18:43;98554.38;;;9.98;68.54
47374;BME280;33123;50.118;10.272;2023-02-20T00:21:10;98553.59;;;9.97;68.36
47374;BME280;33123;50.118;10.272;2023-02-20T00:23:37;98552.56;;;9.98;68.04
47374;BME280;33123;50.118;10.272;2023-02-20T00:26:07;98547.16;;;9.93;68.12
47374;BME280;33123;50.118;10.272;2023-02-20T00:28:34;98554.47;;;9.91;68.31
47374;BME280;33123;50.118;10.272;2023-02-20T00:31:01;98551.41;;;9.94;68.42
47374;BME280;33123;50.118;10.272;2023-02-20T00:33:28;98562.59;;;9.90;68.23
47374;BME280;33123;50.118;10.272;2023-02-20T00:35:55;98551.69;;;9.86;68.47
47374;BME280;33123;50.118;10.272;2023-02-20T00:38:25;98541.53;;;9.90;68.19
47374;BME280;33123;50.118;10.272;2023-02-20T00:40:51;98548.03;;;9.87;68.20
47374;BME280;33123;50.118;10.272;2023-02-20T00:43:18;98550.50;;;9.82;68.43
47374;BME280;33123;50.118;10.272;2023-02-20T00:45:44;98559.81;;;9.85;68.39
47374;BME280;33123;50.118;10.272;2023-02-20T00:48:11;98559.44;;;9.81;67.89
47374;BME280;33123;50.118;10.272;2023-02-20T00:50:39;98561.94;;;9.76;68.35
47374;BME280;33123;50.118;10.272;2023-02-20T00:53:06;98573.25;;;9.76;67.80
47374;BME280;33123;50.118;10.272;2023-02-20T00:55:32;98560.47;;;9.80;67.54
47374;BME280;33123;50.118;10.272;2023-02-20T00:57:59;98563.09;;;9.80;67.68
47374;BME280;33123;50.118;10.272;2023-02-20T01:00:28;98559.91;;;9.78;67.48
47374;BME280;33123;50.118;10.272;2023-02-20T01:02:55;98560.25;;;9.82;67.71
47374;BME280;33123;50.118;10.272;2023-02-20T01:05:22;98538.53;;;9.68;67.56
47374;BME280;33123;50.118;10.272;2023-02-20T01:07:50;98557.19;;;9.85;67.25
47374;BME280;33123;50.118;10.272;2023-02-20T01:10:18;98546.06;;;9.83;67.29
47374;BME280;33123;50.118;10.272;2023-02-20T01:12:45;98542.03;;;9.80;67.06
47374;BME280;33123;50.118;10.272;2023-02-20T01:15:13;98546.06;;;9.83;67.08
47374;BME280;33123;50.118;10.272;2023-02-20T01:17:40;98544.09;;;9.78;67.17
47374;BME280;33123;50.118;10.272;2023-02-20T01:20:08;98540.44;;;9.79;67.27
47374;BME280;33123;50.118;10.272;2023-02-20T01:22:35;98543.31;;;9.77;67.79
47374;BME280;33123;50.118;10.272;2023-02-20T01:25:04;98532.16;;;9.75;67.64
47374;BME280;33123;50.118;10.272;2023-02-20T01:27:31;98535.03;;;9.74;67.87
47374;BME280;33123;50.118;10.272;2023-02-20T01:29:57;98540.28;;;9.74;68.29
47374;BME280;33123;50.118;10.272;2023-02-20T01:32:24;98525.28;;;9.74;67.96
47374;BME280;33123;50.118;10.272;2023-02-20T01:34:50;98537.66;;;9.74;68.28
47374;BME280;33123;50.118;10.272;2023-02-20T01:37:17;98529.53;;;9.75;68.01
47374;BME280;33123;50.118;10.272;2023-02-20T01:39:45;98505.63;;;9.59;67.85
47374;BME280;33123;50.118;10.272;2023-02-20T01:42:17;98530.19;;;9.71;68.16
47374;BME280;33123;50.118;10.272;2023-02-20T01:44:44;98531.22;;;9.70;68.10
47374;BME280;33123;50.118;10.272;2023-02-20T01:47:14;98537.50;;;9.69;68.20
47374;BME280;33123;50.118;10.272;2023-02-20T01:49:43;98539.34;;;9.68;68.45
47374;BME280;33123;50.118;10.272;2023-02-20T01:52:14;98530.88;;;9.66;68.45
47374;BME280;33123;50.118;10.272;2023-02-20T01:54:45;98523.97;;;9.65;68.51
47374;BME280;33123;50.118;10.272;2023-02-20T01:57:18;98518.38;;;9.62;68.45
47374;BME280;33123;50.118;10.272;2023-02-20T01:59:46;98510.97;;;9.52;68.51
47374;BME280;33123;50.118;10.272;2023-02-20T02:02:14;98513.69;;;9.45;68.89
47374;BME280;33123;50.118;10.272;2023-02-20T02:04:42;98535.91;;;9.49;68.53
47374;BME280;33123;50.118;10.272;2023-02-20T02:07:10;98522.75;;;9.49;68.74
47374;BME280;33123;50.118;10.272;2023-02-20T02:09:42;98510.00;;;9.46;68.49
47374;BME280;33123;50.118;10.272;2023-02-20T02:12:11;98504.19;;;9.44;68.22
47374;BME280;33123;50.118;10.272;2023-02-20T02:14:39;98503.56;;;9.42;68.39
47374;BME280;33123;50.118;10.272;2023-02-20T02:17:16;98508.97;;;9.29;68.41
47374;BME280;33123;50.118;10.272;2023-02-20T02:20:21;98512.25;;;9.24;68.59
47374;BME280;33123;50.118;10.272;2023-02-20T02:23:16;98508.53;;;9.32;68.17
47374;BME280;33123;50.118;10.272;2023-02-20T02:25:55;98510.16;;;9.33;67.92
47374;BME280;33123;50.118;10.272;2023-02-20T02:28:43;98498.88;;;9.26;67.85
47374;BME280;33123;50.118;10.272;2023-02-20T02:31:47;98500.47;;;9.09;67.83
47374;BME280;33123;50.118;10.272;2023-02-20T02:34:50;98496.22;;;9.08;67.86
47374;BME280;33123;50.118;10.272;2023-02-20T02:37:23;98492.00;;;9.07;67.77
47374;BME280;33123;50.118;10.272;2023-02-20T02:39:58;98491.78;;;9.08;67.49
47374;BME280;33123;50.118;10.272;2023-02-20T02:42:30;98498.06;;;9.07;67.55
47374;BME280;33123;50.118;10.272;2023-02-20T02:45:09;98467.69;;;8.86;66.93
47374;BME280;33123;50.118;10.272;2023-02-20T02:47:42;98493.81;;;9.06;66.79
47374;BME280;33123;50.118;10.272;2023-02-20T02:50:11;98508.00;;;9.05;66.74
47374;BME280;33123;50.118;10.272;2023-02-20T02:52:42;98513.44;;;9.04;66.37
47374;BME280;33123;50.118;10.272;2023-02-20T02:55:15;98503.06;;;8.90;65.75
47374;BME280;33123;50.118;10.272;2023-02-20T02:57:42;98496.88;;;9.03;65.62
47374;BME280;33123;50.118;10.272;2023-02-20T03:00:12;98489.09;;;8.90;65.64
47374;BME280;33123;50.118;10.272;2023-02-20T03:02:44;98508.78;;;9.06;65.35
47374;BME280;33123;50.118;10.272;2023-02-20T03:05:14;98506.16;;;9.06;65.22
47374;BME280;33123;50.118;10.272;2023-02-20T03:07:46;98507.78;;;9.07;64.56
47374;BME280;33123;50.118;10.272;2023-02-20T03:10:17;98509.22;;;9.03;64.55
47374;BME280;33123;50.118;10.272;2023-02-20T03:12:58;98489.91;;;8.90;64.01
47374;BME280;33123;50.118;10.272;2023-02-20T03:15:30;98507.59;;;9.02;64.41
47374;BME280;33123;50.118;10.272;2023-02-20T03:18:17;98501.97;;;8.98;64.13
47374;BME280;33123;50.118;10.272;2023-02-20T03:20:50;98496.34;;;8.94;64.59
47374;BME280;33123;50.118;10.272;2023-02-20T03:23:23;98498.84;;;8.83;64.33
47374;BME280;33123;50.118;10.272;2023-02-20T03:25:53;98489.59;;;8.80;64.45
47374;BME280;33123;50.118;10.272;2023-02-20T03:28:23;98492.28;;;8.73;64.83
47374;BME280;33123;50.118;10.272;2023-02-20T03:30:55;98492.03;;;8.75;64.80
47374;BME280;33123;50.118;10.272;2023-02-20T03:33:30;98485.59;;;8.71;64.95
47374;BME280;33123;50.118;10.272;2023-02-20T03:36:21;98478.69;;;8.52;65.69
47374;BME280;33123;50.118;10.272;2023-02-20T03:39:11;98475.84;;;8.53;65.92
47374;BME280;33123;50.118;10.272;2023-02-20T03:41:58;98479.06;;;8.55;65.85
47374;BME280;33123;50.118;10.272;2023-02-20T03:44:44;98480.56;;;8.44;66.81
47374;BME280;33123;50.118;10.272;2023-02-20T03:47:13;98489.38;;;8.57;66.44
47374;BME280;33123;50.118;10.272;2023-02-20T03:49:42;98486.97;;;8.49;67.03
47374;BME280;33123;50.118;10.272;2023-02-20T03:52:10;98479.88;;;8.56;66.94
47374;BME280;33123;50.118;10.272;2023-02-20T03:54:38;98476.69;;;8.47;67.55
47374;BME280;33123;50.118;10.272;2023-02-20T03:57:08;98488.34;;;8.58;67.14
47374;BME280;33123;50.118;10.272;2023-02-20T03:59:41;98501.66;;;8.63;67.36
47374;BME280;33123;50.118;10.272;2023-02-20T04:02:14;98507.13;;;8.61;67.71
47374;BME280;33123;50.118;10.272;2023-02-20T04:04:46;98501.31;;;8.53;67.60
47374;BME280;33123;50.118;10.272;2023-02-20T04:07:16;98502.72;;;8.55;67.92
47374;BME280;33123;50.118;10.272;2023-02-20T04:09:46;98502.75;;;8.49;68.47
47374;BME280;33123;50.118;10.272;2023-02-20T04:12:17;98500.03;;;8.62;67.76
47374;BME280;33123;50.118;10.272;2023-02-20T04:14:47;98507.53;;;8.58;68.16
47374;BME280;33123;50.118;10.272;2023-02-20T04:17:19;98501.09;;;8.54;68.01
47374;BME280;33123;50.118;10.272;2023-02-20T04:19:47;98498.72;;;8.78;67.40
47374;BME280;33123;50.118;10.272;2023-02-20T04:22:18;98501.13;;;8.79;67.19
47374;BME280;33123;50.118;10.272;2023-02-20T04:24:49;98499.78;;;8.70;67.35
47374;BME280;33123;50.118;10.272;2023-02-20T04:27:17;98500.25;;;8.60;68.31
47374;BME280;33123;50.118;10.272;2023-02-20T04:29:44;98504.59;;;8.73;67.63
47374;BME280;33123;50.118;10.272;2023-02-20T04:32:11;98494.69;;;8.75;67.78
47374;BME280;33123;50.118;10.272;2023-02-20T04:34:37;98492.84;;;8.76;67.62
47374;BME280;33123;50.118;10.272;2023-02-20T04:37:07;98497.66;;;8.54;68.37
47374;BME280;33123;50.118;10.272;2023-02-20T04:39:34;98494.91;;;8.73;67.77
47374;BME280;33123;50.118;10.272;2023-02-20T04:42:02;98469.84;;;8.71;67.29
47374;BME280;33123;50.118;10.272;2023-02-20T04:44:29;98488.72;;;8.86;67.43
47374;BME280;33123;50.118;10.272;2023-02-20T04:47:01;98485.50;;;8.84;67.43
47374;BME280;33123;50.118;10.272;2023-02-20T04:52:41;98488.03;;;8.72;67.63
47374;BME280;33123;50.118;10.272;2023-02-20T04:55:07;98490.00;;;8.77;67.65
47374;BME280;33123;50.118;10.272;2023-02-20T04:57:35;98492.69;;;8.70;67.70
47374;BME280;33123;50.118;10.272;2023-02-20T05:00:03;98470.31;;;8.36;68.41
47374;BME280;33123;50.118;10.272;2023-02-20T05:02:30;98497.81;;;8.59;67.77
47374;BME280;33123;50.118;10.272;2023-02-20T05:04:56;98488.22;;;8.71;67.66
47374;BME280;33123;50.118;10.272;2023-02-20T05:07:23;98496.13;;;8.71;67.49
47374;BME280;33123;50.118;10.272;2023-02-20T05:09:50;98511.25;;;8.76;66.83
47374;BME280;33123;50.118;10.272;2023-02-20T05:12:16;98510.78;;;8.54;67.73
47374;BME280;33123;50.118;10.272;2023-02-20T05:14:44;98497.59;;;8.67;67.55
47374;BME280;33123;50.118;10.272;2023-02-20T05:17:11;98508.50;;;8.64;67.51
47374;BME280;33123;50.118;10.272;2023-02-20T05:19:37;98504.66;;;8.66;67.40
47374;BME280;33123;50.118;10.272;2023-02-20T05:22:08;98500.78;;;8.69;67.84
47374;BME280;33123;50.118;10.272;2023-02-20T05:24:45;98500.22;;;8.67;67.79
47374;BME280;33123;50.118;10.272;2023-02-20T05:27:13;98493.53;;;8.64;68.16
47374;BME280;33123;50.118;10.272;2023-02-20T05:29:44;98496.81;;;8.60;68.44
47374;BME280;33123;50.118;10.272;2023-02-20T05:32:11;98492.25;;;8.49;68.93
47374;BME280;33123;50.118;10.272;2023-02-20T05:34:38;98498.28;;;8.49;68.21
47374;BME280;33123;50.118;10.272;2023-02-20T05:37:04;98494.75;;;8.37;68.74
47374;BME280;33123;50.118;10.272;2023-02-20T05:39:31;98510.50;;;8.37;68.69
47374;BME280;33123;50.118;10.272;2023-02-20T05:41:58;98504.22;;;8.44;68.57
47374;BME280;33123;50.118;10.272;2023-02-20T05:44:24;98490.59;;;8.54;68.15
47374;BME280;33123;50.118;10.272;2023-02-20T05:46:53;98486.97;;;8.17;69.19
47374;BME280;33123;50.118;10.272;2023-02-20T05:49:20;98484.53;;;8.54;68.79
47374;BME280;33123;50.118;10.272;2023-02-20T05:51:47;98493.88;;;8.50;68.22
47374;BME280;33123;50.118;10.272;2023-02-20T05:54:15;98490.47;;;8.42;68.44
47374;BME280;33123;50.118;10.272;2023-02-20T05:56:41;98494.06;;;8.48;68.17
47374;BME280;33123;50.118;10.272;2023-02-20T05:59:08;98494.13;;;8.35;68.44
47374;BME280;33123;50.118;10.272;2023-02-20T06:01:35;98482.59;;;8.42;68.12
47374;BME280;33123;50.118;10.272;2023-02-20T06:04:04;98489.91;;;8.27;68.19
47374;BME280;33123;50.118;10.272;2023-02-20T06:06:32;98496.41;;;8.25;68.24
47374;BME280;33123;50.118;10.272;2023-02-20T06:08:58;98499.59;;;8.40;67.72
47374;BME280;33123;50.118;10.272;2023-02-20T06:11:25;98500.78;;;8.37;67.44
47374;BME280;33123;50.118;10.272;2023-02-20T06:13:52;98496.81;;;8.28;67.77
47374;BME280;33123;50.118;10.272;2023-02-20T06:16:22;98500.00;;;8.30;67.29
47374;BME280;33123;50.118;10.272;2023-02-20T06:18:48;98505.78;;;8.07;68.24
47374;BME280;33123;50.118;10.272;2023-02-20T06:21:16;98508.72;;;8.24;67.77
47374;BME280;33123;50.118;10.272;2023-02-20T06:23:43;98500.06;;;8.24;67.65
47374;BME280;33123;50.118;10.272;2023-02-20T06:26:11;98500.47;;;8.20;67.98
47374;BME280;33123;50.118;10.272;2023-02-20T06:28:38;98488.91;;;8.28;67.49
47374;BME280;33123;50.118;10.272;2023-02-20T06:31:05;98483.28;;;8.25;67.58
47374;BME280;33123;50.118;10.272;2023-02-20T06:33:32;98496.19;;;8.26;67.75
47374;BME280;33123;50.118;10.272;2023-02-20T06:35:59;98513.22;;;8.10;68.30
47374;BME280;33123;50.118;10.272;2023-02-20T06:38:27;98494.66;;;8.12;67.83
47374;BME280;33123;50.118;10.272;2023-02-20T06:40:54;98489.16;;;8.20;67.50
47374;BME280;33123;50.118;10.272;2023-02-20T06:43:21;98490.44;;;8.11;68.03
47374;BME280;33123;50.118;10.272;2023-02-20T06:45:47;98486.78;;;8.12;67.71
47374;BME280;33123;50.118;10.272;2023-02-20T06:48:14;98496.09;;;8.08;67.85
47374;BME280;33123;50.118;10.272;2023-02-20T06:50:41;98500.09;;;8.17;67.88
47374;BME280;33123;50.118;10.272;2023-02-20T06:53:08;98498.06;;;8.19;67.76
47374;BME280;33123;50.118;10.272;2023-02-20T06:55:36;98494.09;;;8.03;67.46
47374;BME280;33123;50.118;10.272;2023-02-20T06:58:03;98502.63;;;8.30;67.67
47374;BME280;33123;50.118;10.272;2023-02-20T07:00:29;98488.75;;;8.23;68.17
47374;BME280;33123;50.118;10.272;2023-02-20T07:02:56;98462.03;;;8.26;67.97
47374;BME280;33123;50.118;10.272;2023-02-20T07:05:23;98486.66;;;8.38;68.07
47374;BME280;33123;50.118;10.272;2023-02-20T07:07:49;98493.53;;;8.39;67.41
47374;BME280;33123;50.118;10.272;2023-02-20T07:10:16;98496.63;;;8.55;67.44
47374;BME280;33123;50.118;10.272;2023-02-20T07:12:44;98496.19;;;8.89;66.16
47374;BME280;33123;50.118;10.272;2023-02-20T07:15:11;98503.47;;;9.12;65.31
47374;BME280;33123;50.118;10.272;2023-02-20T07:17:38;98513.28;;;9.42;64.25
47374;BME280;33123;50.118;10.272;2023-02-20T07:20:05;98507.25;;;9.78;63.43
47374;BME280;33123;50.118;10.272;2023-02-20T07:22:32;98482.75;;;10.08;62.46
47374;BME280;33123;50.118;10.272;2023-02-20T07:24:58;98498.97;;;10.23;61.93
47374;BME280;33123;50.118;10.272;2023-02-20T07:27:25;98499.66;;;10.60;60.47
47374;BME280;33123;50.118;10.272;2023-02-20T07:29:53;98507.41;;;10.85;59.64
47374;BME280;33123;50.118;10.272;2023-02-20T07:32:20;98502.38;;;11.07;58.58
47374;BME280;33123;50.118;10.272;2023-02-20T07:34:47;98482.06;;;10.72;58.81
47374;BME280;33123;50.118;10.272;2023-02-20T07:37:14;98494.72;;;11.05;58.66
47374;BME280;33123;50.118;10.272;2023-02-20T07:39:41;98502.50;;;11.24;58.26
47374;BME280;33123;50.118;10.272;2023-02-20T07:42:08;98497.31;;;10.94;58.55
47374;BME280;33123;50.118;10.272;2023-02-20T07:44:34;98496.03;;;10.73;59.04
47374;BME280;33123;50.118;10.272;2023-02-20T07:47:03;98489.41;;;10.94;59.26
47374;BME280;33123;50.118;10.272;2023-02-20T07:49:29;98481.72;;;11.04;58.87
47374;BME280;33123;50.118;10.272;2023-02-20T07:51:56;98482.97;;;11.36;58.29
47374;BME280;33123;50.118;10.272;2023-02-20T07:54:22;98495.47;;;11.41;58.16
47374;BME280;33123;50.118;10.272;2023-02-20T07:56:51;98490.72;;;11.78;56.87
47374;BME280;33123;50.118;10.272;2023-02-20T07:59:18;98491.47;;;12.02;55.95
47374;BME280;33123;50.118;10.272;2023-02-20T08:01:44;98496.94;;;12.12;55.09
47374;BME280;33123;50.118;10.272;2023-02-20T08:04:12;98493.06;;;12.32;54.44
47374;BME280;33123;50.118;10.272;2023-02-20T08:06:39;98488.59;;;12.49;53.76
47374;BME280;33123;50.118;10.272;2023-02-20T08:09:06;98482.47;;;12.60;53.65
47374;BME280;33123;50.118;10.272;2023-02-20T08:11:33;98479.75;;;12.55;53.93
47374;BME280;33123;50.118;10.272;2023-02-20T08:14:00;98473.91;;;12.25;53.81
47374;BME280;33123;50.118;10.272;2023-02-20T08:16:27;98475.16;;;12.84;53.19
47374;BME280;33123;50.118;10.272;2023-02-20T08:18:53;98479.00;;;12.77;53.53
47374;BME280;33123;50.118;10.272;2023-02-20T08:21:21;98465.91;;;13.20;52.48
47374;BME280;33123;50.118;10.272;2023-02-20T08:23:48;98486.19;;;13.15;52.46
47374;BME280;33123;50.118;10.272;2023-02-20T08:26:16;98471.69;;;13.34;52.02
47374;BME280;33123;50.118;10.272;2023-02-20T08:28:45;98476.19;;;13.17;51.58
47374;BME280;33123;50.118;10.272;2023-02-20T08:31:15;98470.97;;;13.61;50.98
47374;BME280;33123;50.118;10.272;2023-02-20T08:33:41;98471.63;;;13.51;51.41
47374;BME280;33123;50.118;10.272;2023-02-20T08:36:08;98469.78;;;13.73;50.92
47374;BME280;33123;50.118;10.272;2023-02-20T08:38:37;98468.88;;;13.63;51.32
47374;BME280;33123;50.118;10.272;2023-02-20T08:41:05;98468.31;;;13.83;50.35
47374;BME280;33123;50.118;10.272;2023-02-20T08:43:32;98474.72;;;13.87;50.64
47374;BME280;33123;50.118;10.272;2023-02-20T08:45:59;98467.03;;;14.12;49.90
47374;BME280;33123;50.118;10.272;2023-02-20T08:48:26;98481.34;;;14.38;49.60
47374;BME280;33123;50.118;10.272;2023-02-20T08:50:53;98470.91;;;14.86;49.16
47374;BME280;33123;50.118;10.272;2023-02-20T08:53:20;98466.13;;;14.83;48.64
47374;BME280;33123;50.118;10.272;2023-02-20T08:55:48;98466.69;;;15.37;47.78
47374;BME280;33123;50.118;10.272;2023-02-20T08:58:18;98463.34;;;15.10;47.71
47374;BME280;33123;50.118;10.272;2023-02-20T09:00:45;98460.25;;;14.81;48.14
47374;BME280;33123;50.118;10.272;2023-02-20T09:03:11;98449.34;;;14.18;49.01
47374;BME280;33123;50.118;10.272;2023-02-20T09:05:38;98451.06;;;13.36;50.64
47374;BME280;33123;50.118;10.272;2023-02-20T09:08:05;98450.19;;;13.31;51.84
47374;BME280;33123;50.118;10.272;2023-02-20T09:10:32;98438.47;;;13.27;52.49
47374;BME280;33123;50.118;10.272;2023-02-20T09:13:01;98431.34;;;13.27;52.27
47374;BME280;33123;50.118;10.272;2023-02-20T09:15:28;98430.44;;;13.38;51.93
47374;BME280;33123;50.118;10.272;2023-02-20T09:18:00;98427.41;;;13.73;51.34
47374;BME280;33123;50.118;10.272;2023-02-20T09:20:26;98431.66;;;13.53;51.44
47374;BME280;33123;50.118;10.272;2023-02-20T09:22:56;98424.31;;;13.38;51.55
47374;BME280;33123;50.118;10.272;2023-02-20T09:25:24;98429.25;;;13.73;51.87
47374;BME280;33123;50.118;10.272;2023-02-20T09:27:51;98423.84;;;13.41;52.62
47374;BME280;33123;50.118;10.272;2023-02-20T09:30:20;98420.75;;;12.88;53.73
47374;BME280;33123;50.118;10.272;2023-02-20T09:32:48;98416.88;;;12.96;53.89
47374;BME280;33123;50.118;10.272;2023-02-20T09:35:16;98423.13;;;12.90;54.31
47374;BME280;33123;50.118;10.272;2023-02-20T09:37:43;98426.84;;;12.55;55.25
47374;BME280;33123;50.118;10.272;2023-02-20T09:40:10;98427.56;;;12.34;56.04
47374;BME280;33123;50.118;10.272;2023-02-20T09:42:45;98421.69;;;12.32;56.43
47374;BME280;33123;50.118;10.272;2023-02-20T09:45:17;98420.41;;;12.18;56.57
47374;BME280;33123;50.118;10.272;2023-02-20T09:47:59;98416.56;;;12.25;56.42
47374;BME280;33123;50.118;10.272;2023-02-20T09:50:32;98423.88;;;12.35;56.08
47374;BME280;33123;50.118;10.272;2023-02-20T09:53:05;98423.03;;;12.01;55.99
47374;BME280;33123;50.118;10.272;2023-02-20T09:55:36;98428.75;;;11.98;56.47
47374;BME280;33123;50.118;10.272;2023-02-20T09:58:05;98428.09;;;12.19;56.70
47374;BME280;33123;50.118;10.272;2023-02-20T10:00:34;98416.25;;;12.22;56.02
47374;BME280;33123;50.118;10.272;2023-02-20T10:03:14;98427.41;;;12.40;55.59
47374;BME280;33123;50.118;10.272;2023-02-20T10:05:44;98404.13;;;12.09;56.18
47374;BME280;33123;50.118;10.272;2023-02-20T10:08:18;98409.31;;;12.04;55.88
47374;BME280;33123;50.118;10.272;2023-02-20T10:10:48;98410.31;;;12.14;56.00
47374;BME280;33123;50.118;10.272;2023-02-20T10:13:29;98395.34;;;12.20;55.80
47374;BME280;33123;50.118;10.272;2023-02-20T10:16:06;98393.91;;;12.12;56.08
47374;BME280;33123;50.118;10.272;2023-02-20T10:18:45;98386.78;;;12.30;56.34
47374;BME280;33123;50.118;10.272;2023-02-20T10:21:37;98393.41;;;12.15;56.40
47374;BME280;33123;50.118;10.272;2023-02-20T10:24:17;98391.50;;;12.28;56.49
47374;BME280;33123;50.118;10.272;2023-02-20T10:26:53;98374.69;;;12.34;56.29
47374;BME280;33123;50.118;10.272;2023-02-20T10:29:25;98384.69;;;12.49;55.64
47374;BME280;33123;50.118;10.272;2023-02-20T10:31:58;98372.69;;;12.97;54.54
47374;BME280;33123;50.118;10.272;2023-02-20T10:34:30;98376.63;;;12.94;54.66
47374;BME280;33123;50.118;10.272;2023-02-20T10:37:00;98370.16;;;13.24;53.93
47374;BME280;33123;50.118;10.272;2023-02-20T10:39:29;98369.69;;;13.54;53.49
47374;BME280;33123;50.118;10.272;2023-02-20T10:42:01;98375.78;;;13.54;52.96
47374;BME280;33123;50.118;10.272;2023-02-20T10:44:31;98371.72;;;13.68;52.85
47374;BME280;33123;50.118;10.272;2023-02-20T10:47:05;98365.28;;;13.86;53.74
47374;BME280;33123;50.118;10.272;2023-02-20T10:49:37;98368.69;;;14.14;52.74
47374;BME280;33123;50.118;10.272;2023-02-20T10:52:09;98374.44;;;14.33;51.73
47374;BME280;33123;50.118;10.272;2023-02-20T10:54:40;98373.22;;;14.83;50.17
47374;BME280;33123;50.118;10.272;2023-02-20T10:57:14;98349.97;;;15.00;49.44
47374;BME280;33123;50.118;10.272;2023-02-20T10:59:47;98368.69;;;15.36;49.27
47374;BME280;33123;50.118;10.272;2023-02-20T11:02:20;98342.66;;;15.43;48.17
47374;BME280;33123;50.118;10.272;2023-02-20T11:04:53;98364.59;;;15.08;48.58
47374;BME280;33123;50.118;10.272;2023-02-20T11:07:21;98360.09;;;15.13;47.74
47374;BME280;33123;50.118;10.272;2023-02-20T11:09:48;98347.38;;;14.68;48.46
47374;BME280;33123;50.118;10.272;2023-02-20T11:12:21;98345.66;;;14.89;48.61
47374;BME280;33123;50.118;10.272;2023-02-20T11:14:50;98336.06;;;14.88;49.23
47374;BME280;33123;50.118;10.272;2023-02-20T11:17:21;98336.47;;;14.64;48.79
47374;BME280;33123;50.118;10.272;2023-02-20T11:19:53;98320.97;;;14.93;49.13
47374;BME280;33123;50.118;10.272;2023-02-20T11:22:39;98321.94;;;15.35;49.06
47374;BME280;33123;50.118;10.272;2023-02-20T11:25:16;98313.56;;;15.99;47.84
47374;BME280;33123;50.118;10.272;2023-02-20T11:27:45;98302.41;;;16.17;45.35
47374;BME280;33123;50.118;10.272;2023-02-20T11:30:26;98311.47;;;16.01;45.34
47374;BME280;33123;50.118;10.272;2023-02-20T11:33:00;98299.97;;;16.46;45.74
47374;BME280;33123;50.118;10.272;2023-02-20T11:35:32;98299.16;;;16.61;44.82
47374;BME280;33123;50.118;10.272;2023-02-20T11:38:26;98285.28;;;16.84;44.09
47374;BME280;33123;50.118;10.272;2023-02-20T11:41:05;98287.69;;;17.35;44.33
47374;BME280;33123;50.118;10.272;2023-02-20T11:43:34;98277.41;;;17.63;43.38
47374;BME280;33123;50.118;10.272;2023-02-20T11:46:10;98270.66;;;17.76;42.71
47374;BME280;33123;50.118;10.272;2023-02-20T11:48:57;98262.72;;;18.05;42.29
47374;BME280;33123;50.118;10.272;2023-02-20T11:51:36;98252.31;;;17.64;41.29
47374;BME280;33123;50.118;10.272;2023-02-20T11:54:09;98251.28;;;18.28;41.56
47374;BME280;33123;50.118;10.272;2023-02-20T11:56:36;98240.34;;;17.66;40.92
47374;BME280;33123;50.118;10.272;2023-02-20T11:59:26;98241.84;;;18.12;41.59
47374;BME280;33123;50.118;10.272;2023-02-20T12:01:53;98245.09;;;18.04;41.60
47374;BME280;33123;50.118;10.272;2023-02-20T12:04:22;98238.81;;;17.94;40.47
47374;BME280;33123;50.118;10.272;2023-02-20T12:06:52;98241.13;;;17.67;40.50
47374;BME280;33123;50.118;10.272;2023-02-20T12:09:21;98239.78;;;17.64;40.87
47374;BME280;33123;50.118;10.272;2023-02-20T12:11:53;98233.31;;;17.36;40.63
47374;BME280;33123;50.118;10.272;2023-02-20T12:14:21;98234.66;;;17.39;41.08
47374;BME280;33123;50.118;10.272;2023-02-20T12:17:01;98229.81;;;17.46;40.60
47374;BME280;33123;50.118;10.272;2023-02-20T12:19:38;98221.16;;;17.25;41.28
47374;BME280;33123;50.118;10.272;2023-02-20T12:22:17;98230.66;;;17.76;40.92
47374;BME280;33123;50.118;10.272;2023-02-20T12:24:56;98226.38;;;18.09;40.41
47374;BME280;33123;50.118;10.272;2023-02-20T12:27:41;98215.63;;;18.19;38.66
47374;BME280;33123;50.118;10.272;2023-02-20T12:30:22;98206.75;;;18.00;38.29
47374;BME280;33123;50.118;10.272;2023-02-20T12:33:01;98201.19;;;18.20;38.73
47374;BME280;33123;50.118;10.272;2023-02-20T12:35:31;98188.03;;;18.05;38.66
47374;BME280;33123;50.118;10.272;2023-02-20T12:38:13;98201.78;;;18.17;38.73
47374;BME280;33123;50.118;10.272;2023-02-20T12:41:11;98201.88;;;18.07;39.38
47374;BME280;33123;50.118;10.272;2023-02-20T12:43:46;98192.50;;;17.80;38.87
47374;BME280;33123;50.118;10.272;2023-02-20T12:46:21;98195.09;;;17.17;39.50
47374;BME280;33123;50.118;10.272;2023-02-20T12:49:05;98180.22;;;17.84;38.44
47374;BME280;33123;50.118;10.272;2023-02-20T12:54:59;98177.78;;;17.88;38.30
47374;BME280;33123;50.118;10.272;2023-02-20T12:57:38;98170.00;;;17.91;37.95
47374;BME280;33123;50.118;10.272;2023-02-20T13:00:18;98163.81;;;17.67;37.90
47374;BME280;33123;50.118;10.272;2023-02-20T13:02:50;98160.56;;;17.75;38.17
47374;BME280;33123;50.118;10.272;2023-02-20T13:05:22;98146.75;;;17.68;38.41
47374;BME280;33123;50.118;10.272;2023-02-20T13:07:53;98148.13;;;17.94;38.38
47374;BME280;33123;50.118;10.272;2023-02-20T13:10:23;98125.94;;;17.99;38.14
47374;BME280;33123;50.118;10.272;2023-02-20T13:12:51;98139.03;;;18.19;38.02
47374;BME280;33123;50.118;10.272;2023-02-20T13:15:31;98133.31;;;17.83;38.37
47374;BME280;33123;50.118;10.272;2023-02-20T13:18:04;98094.78;;;17.65;37.75
47374;BME280;33123;50.118;10.272;2023-02-20T13:20:42;98124.38;;;17.64;38.68